Terminal Aerodrome Forecast
Issued by NWS Tulsa, OK

Home | Current Version | Previous Version | Text Only | Print | Product List | Glossary On
Versions: 1 2 3 4 5 6 7 8 9 10 11 12 13 14 15 16 17 18 19
000
FTUS44 KTSA 251700
TAFFSM
TAF
KFSM 251720Z 2518/2618 26013KT P6SM SKC
     FM260000 26008KT P6SM FEW250
     FM260300 VRB05KT P6SM SCT250
     FM261200 08008KT P6SM SCT250=

USA.gov is the U.S. government's official web portal to all federal, state and local government web resources and services.